createdAt,value
2023-04-02T00:00:53.120Z,824
2023-04-02T00:05:54.369Z,824
2023-04-02T00:10:55.656Z,776.43243
2023-04-02T00:15:57.035Z,754.52632
2023-04-02T00:20:58.325Z,723.74684
2023-04-02T00:25:59.725Z,714
2023-04-02T00:31:00.975Z,695.21951
2023-04-02T00:36:02.481Z,686.16867
2023-04-02T00:41:04.095Z,704.49383
2023-04-02T00:46:05.453Z,695.21951
2023-04-02T00:51:06.860Z,686.16867
2023-04-02T00:56:08.210Z,668.70588
2023-04-02T01:01:09.538Z,644
2023-04-02T01:06:11.223Z,620.92308
2023-04-02T01:11:12.609Z,613.56522
2023-04-02T01:16:13.935Z,592.42105
2023-04-02T01:21:15.400Z,572.57143
2023-04-02T01:26:17.037Z,560
2023-04-02T01:31:18.438Z,553.90099
2023-04-02T01:36:19.818Z,566.22222
2023-04-02T01:41:21.254Z,572.57143
2023-04-02T01:46:22.835Z,553.90099
2023-04-02T01:51:24.157Z,560
2023-04-02T01:56:25.683Z,560
2023-04-02T02:01:26.907Z,560
2023-04-02T02:06:28.156Z,566.22222
2023-04-02T02:11:29.753Z,553.90099
2023-04-02T02:16:31.129Z,553.90099
2023-04-02T02:21:32.385Z,547.92157
2023-04-02T02:26:33.779Z,547.92157
2023-04-02T02:31:35.212Z,542.05825
2023-04-02T02:36:36.768Z,547.92157
2023-04-02T02:41:38.096Z,547.92157
2023-04-02T02:46:39.399Z,542.05825
2023-04-02T02:51:40.746Z,542.05825
2023-04-02T02:56:42.022Z,553.90099
2023-04-02T03:01:43.447Z,553.90099
2023-04-02T03:06:44.878Z,547.92157
2023-04-02T03:11:46.215Z,536.30769
2023-04-02T03:16:47.451Z,542.05825
2023-04-02T03:21:48.932Z,547.92157
2023-04-02T03:26:50.640Z,585.66667
2023-04-02T03:31:51.919Z,620.92308
2023-04-02T03:36:53.356Z,644
2023-04-02T03:41:54.870Z,652.04598
2023-04-02T03:46:56.135Z,652.04598
2023-04-02T03:51:57.501Z,686.16867
2023-04-02T03:56:58.866Z,686.16867
2023-04-02T04:02:00.291Z,660.27907
2023-04-02T04:07:01.633Z,644
2023-04-02T04:12:03.143Z,620.92308
2023-04-02T04:17:04.516Z,652.04598
2023-04-02T04:22:05.928Z,668.70588
2023-04-02T04:27:07.327Z,695.21951
2023-04-02T04:32:08.592Z,695.21951
2023-04-02T04:37:09.970Z,686.16867
2023-04-02T04:42:11.436Z,677.33333
2023-04-02T04:47:12.691Z,660.27907
2023-04-02T04:52:13.995Z,668.70588
2023-04-02T04:57:15.520Z,636.13483
2023-04-02T05:02:16.800Z,628.44444
2023-04-02T05:07:18.248Z,644
2023-04-02T05:12:19.839Z,636.13483
2023-04-02T05:17:21.300Z,636.13483
2023-04-02T05:22:22.785Z,660.27907
2023-04-02T05:27:24.199Z,628.44444
2023-04-02T05:32:25.574Z,704.49383
2023-04-02T05:37:27.060Z,668.70588
2023-04-02T05:42:28.634Z,723.74684
2023-04-02T05:47:30.080Z,776.43243
2023-04-02T05:52:31.575Z,744
2023-04-02T05:57:44.503Z,723.74684
2023-04-02T06:02:51.015Z,776.43243
2023-04-02T06:07:52.299Z,824
2023-04-02T06:12:53.988Z,824
2023-04-02T06:17:55.242Z,799.55556
2023-04-02T06:22:56.762Z,877.33333
2023-04-02T06:27:58.257Z,877.33333
2023-04-02T06:32:59.669Z,970.66667
2023-04-02T06:38:01.027Z,1044
2023-04-02T06:43:02.528Z,1084.74074
2023-04-02T06:48:04.036Z,1084.74074
2023-04-02T06:53:05.355Z,1254.6383
2023-04-02T06:58:06.986Z,1376.55814
2023-04-02T07:03:08.273Z,1565.05263
2023-04-02T07:08:09.570Z,1376.55814
2023-04-02T07:13:11.042Z,1704
2023-04-02T07:18:12.291Z,1704
2023-04-02T07:23:15.266Z,1608.86486
2023-04-02T07:28:19.159Z,1869
2023-04-02T07:33:21.146Z,3186.10526
2023-04-02T07:38:22.511Z,7644
2023-04-02T07:43:23.806Z,5544
2023-04-02T07:48:25.043Z,8744
2023-04-02T07:53:26.378Z,10210.66667
2023-04-02T07:58:27.867Z,12264
2023-04-02T08:03:29.463Z,20477.33333
2023-04-02T08:08:31.046Z,20477.33333
2023-04-02T08:13:32.705Z,15344
2023-04-02T08:18:33.993Z,12264
2023-04-02T08:23:35.408Z,20477.33333
2023-04-02T08:28:36.895Z,20477.33333
2023-04-02T08:33:38.375Z,20477.33333
2023-04-02T08:38:39.719Z,15344
2023-04-02T08:43:41.132Z,30744
2023-04-02T08:48:42.789Z,30744
2023-04-02T08:53:44.098Z,30744
2023-04-02T08:58:45.392Z,30744
2023-04-02T09:03:46.764Z,30744
2023-04-02T09:08:48.072Z,61544
2023-04-02T09:13:49.352Z,61544
2023-04-02T09:18:50.601Z,30744
2023-04-02T09:23:51.879Z,61544
2023-04-02T09:28:53.725Z,61544
2023-04-02T09:33:55.098Z,61544
2023-04-02T09:38:56.443Z,30744
2023-04-02T09:43:57.742Z,61544
2023-04-02T09:48:59.089Z,30744
2023-04-02T09:54:00.448Z,30744
2023-04-02T09:59:01.768Z,30744
2023-04-02T10:04:03.123Z,30744
2023-04-02T10:09:04.511Z,61544
2023-04-02T10:14:05.770Z,61544
2023-04-02T10:19:07.005Z,61544
2023-04-02T10:24:08.267Z,61544
2023-04-02T10:29:09.944Z,0
2023-04-02T10:34:11.500Z,61544
2023-04-02T10:39:12.770Z,61544
2023-04-02T10:44:20.300Z,61544
2023-04-02T10:49:22.184Z,0
2023-04-02T10:54:23.506Z,61544
2023-04-02T10:59:24.808Z,61544
2023-04-02T11:04:26.125Z,0
2023-04-02T11:09:27.410Z,0
2023-04-02T11:14:28.767Z,61544
2023-04-02T11:19:30.335Z,0
2023-04-02T11:24:31.861Z,61544
2023-04-02T11:29:33.336Z,0
2023-04-02T11:34:34.870Z,61544
2023-04-02T11:39:36.137Z,61544
2023-04-02T11:44:37.625Z,61544
2023-04-02T11:49:38.877Z,61544
2023-04-02T11:54:40.200Z,61544
2023-04-02T11:59:41.811Z,61544
2023-04-02T12:04:43.094Z,0
2023-04-02T12:09:44.908Z,0
2023-04-02T12:14:46.234Z,0
2023-04-02T12:19:47.771Z,61544
2023-04-02T12:24:49.212Z,0
2023-04-02T12:29:50.857Z,0
2023-04-02T12:34:52.108Z,61544
2023-04-02T12:39:53.704Z,61544
2023-04-02T12:44:54.967Z,61544
2023-04-02T12:49:56.240Z,61544
2023-04-02T12:54:57.586Z,0
2023-04-02T12:59:58.974Z,0
2023-04-02T13:05:00.418Z,61544
2023-04-02T13:10:01.856Z,61544
2023-04-02T13:15:03.649Z,61544
2023-04-02T13:20:05.188Z,0
2023-04-02T13:25:06.627Z,61544
2023-04-02T13:30:08.195Z,61544
2023-04-02T13:35:09.573Z,61544
2023-04-02T13:40:10.886Z,61544
2023-04-02T13:45:12.381Z,0
2023-04-02T13:50:13.759Z,61544
2023-04-02T13:55:15.115Z,61544
2023-04-02T14:00:16.411Z,61544
2023-04-02T14:05:17.888Z,61544
2023-04-02T14:10:19.968Z,61544
2023-04-02T14:15:21.533Z,61544
2023-04-02T14:20:23.096Z,61544
2023-04-02T14:25:24.683Z,20477.33333
2023-04-02T14:30:26.087Z,15344
2023-04-02T14:35:27.597Z,5544
2023-04-02T14:40:29.098Z,15344
2023-04-02T14:45:30.592Z,30744
2023-04-02T14:50:31.824Z,30744
2023-04-02T14:55:33.181Z,2744
2023-04-02T15:00:34.915Z,2313.23077
2023-04-02T15:05:36.880Z,2408
2023-04-02T15:10:38.358Z,1565.05263
2023-04-02T15:15:41.104Z,5077.33333
2023-04-02T15:20:42.518Z,3024
2023-04-02T15:25:43.872Z,3366.22222
2023-04-02T15:30:45.388Z,1931.09677
2023-04-02T15:35:46.927Z,12264
2023-04-02T15:40:48.251Z,7644
2023-04-02T15:45:49.906Z,4344
2023-04-02T15:50:51.295Z,2622.26087
2023-04-02T15:55:52.512Z,1869
2023-04-02T16:00:53.843Z,1410.66667
2023-04-02T16:05:55.238Z,1410.66667
2023-04-02T16:10:56.681Z,1151.84314
2023-04-02T16:15:58.197Z,1254.6383
2023-04-02T16:20:59.584Z,1024.70175
2023-04-02T16:26:00.815Z,921.77778
2023-04-02T16:31:02.219Z,863.40299
2023-04-02T16:36:03.557Z,799.55556
2023-04-02T16:41:08.898Z,836.75362
2023-04-02T16:46:10.648Z,836.75362
2023-04-02T16:51:11.915Z,1106.26415
2023-04-02T16:56:13.231Z,1201.14286
2023-04-02T17:01:14.755Z,849.88235
2023-04-02T17:06:16.048Z,744
2023-04-02T17:11:17.281Z,849.88235
2023-04-02T17:16:18.603Z,1006.06897
2023-04-02T17:21:20.159Z,1484
2023-04-02T17:26:21.540Z,1655.11111
2023-04-02T17:31:22.954Z,1312.88889
2023-04-02T17:36:24.230Z,1410.66667
2023-04-02T17:41:25.707Z,1410.66667
2023-04-02T17:46:27.720Z,1376.55814
2023-04-02T17:51:29.062Z,1704
2023-04-02T17:56:30.434Z,3794
2023-04-02T18:01:32.228Z,4344
2023-04-02T18:06:33.869Z,3567.52941
2023-04-02T18:11:35.260Z,3567.52941
2023-04-02T18:16:36.841Z,4344
2023-04-02T18:21:38.350Z,4344
2023-04-02T18:26:39.606Z,3366.22222
2023-04-02T18:31:40.921Z,2622.26087
2023-04-02T18:36:42.594Z,2225.48148
2023-04-02T18:41:43.888Z,1931.09677
2023-04-02T18:46:45.666Z,1344
2023-04-02T18:51:46.955Z,1608.86486
2023-04-02T18:56:48.458Z,1410.66667
2023-04-02T19:01:49.852Z,1312.88889
2023-04-02T19:06:51.083Z,1254.6383
2023-04-02T19:11:52.566Z,1128.61538
2023-04-02T19:16:53.988Z,1084.74074
2023-04-02T19:21:55.256Z,1024.70175
2023-04-02T19:26:56.621Z,1176
2023-04-02T19:31:58.101Z,1151.84314
2023-04-02T19:36:59.437Z,1064
2023-04-02T19:42:00.728Z,1064
2023-04-02T19:47:02.194Z,1106.26415
2023-04-02T19:52:03.577Z,1201.14286
2023-04-02T19:57:05.406Z,1283.13043
2023-04-02T20:02:07.001Z,1106.26415
2023-04-02T20:07:08.287Z,1283.13043
2023-04-02T20:12:09.903Z,1084.74074
2023-04-02T20:17:11.268Z,988.0678
2023-04-02T20:22:12.746Z,1006.06897
2023-04-02T20:27:14.471Z,1084.74074
2023-04-02T20:32:15.869Z,1106.26415
2023-04-02T20:37:17.135Z,1227.33333
2023-04-02T20:42:18.507Z,1044
2023-04-02T20:47:19.880Z,921.77778
2023-04-02T20:52:21.293Z,1024.70175
2023-04-02T20:57:22.558Z,937.54839
2023-04-02T21:02:24.241Z,1024.70175
2023-04-02T21:07:25.552Z,1254.6383
2023-04-02T21:12:26.912Z,1312.88889
2023-04-02T21:17:28.550Z,1176
2023-04-02T21:22:29.795Z,1084.74074
2023-04-02T21:27:31.070Z,1106.26415
2023-04-02T21:32:32.677Z,988.0678
2023-04-02T21:37:34.398Z,1044
2023-04-02T21:42:35.958Z,1006.06897
2023-04-02T21:47:37.304Z,970.66667
2023-04-02T21:52:38.925Z,906.5
2023-04-02T21:57:40.429Z,937.54839
2023-04-02T22:02:42.467Z,921.77778
2023-04-02T22:07:43.778Z,937.54839
2023-04-02T22:12:45.317Z,906.5
2023-04-02T22:17:46.836Z,1024.70175
2023-04-02T22:22:48.308Z,1024.70175
2023-04-02T22:27:49.629Z,1024.70175
2023-04-02T22:32:51.078Z,988.0678
2023-04-02T22:37:52.437Z,1128.61538
2023-04-02T22:42:53.806Z,1151.84314
2023-04-02T22:47:55.221Z,1044
2023-04-02T22:52:56.568Z,970.66667
2023-04-02T22:57:58.030Z,877.33333
2023-04-02T23:02:59.460Z,1128.61538
2023-04-02T23:08:00.888Z,1044
2023-04-02T23:13:02.248Z,891.69231
2023-04-02T23:18:04.248Z,1044
2023-04-02T23:23:05.529Z,1283.13043
2023-04-02T23:28:06.946Z,1704
2023-04-02T23:33:08.356Z,2622.26087
2023-04-02T23:38:09.693Z,3186.10526
2023-04-02T23:43:10.994Z,3024
2023-04-02T23:48:13.070Z,5077.33333
2023-04-02T23:53:14.360Z,12264
2023-04-02T23:58:15.619Z,15344
